Time;durP1;ratioP1;P1;durP2;ratioP2;P2;SDS_P1;SDS_P2;PMS_P1;PMS_P2;Temp;Humidity;BMP_temperature;BMP_pressure;BME280_temperature;BME280_humidity;BME280_pressure;Samples;Min_cycle;Max_cycle;Signal;HPM_P1;HPM_P2
2021/11/25 00:00:36;;;;;;;;;5.00;1.00;;;;;6.22;61.82;100900.19;5085370;28;45549;-83
2021/11/25 00:03:02;;;;;;;;;0.50;0.50;;;;;6.56;61.96;100965.78;5085077;28;45419;-83
2021/11/25 00:05:27;;;;;;;;;1.75;0.00;;;;;6.56;62.20;100968.38;5085220;28;45243;-83
2021/11/25 00:07:56;;;;;;;;;2.00;2.00;;;;;6.31;62.12;100938.38;5067186;28;45333;-83
2021/11/25 00:10:21;;;;;;;;;0.50;0.50;;;;;6.23;62.36;100929.50;5085349;28;45346;-83
2021/11/25 00:12:47;;;;;;;;;2.50;0.25;;;;;6.37;62.34;100955.78;5083594;28;46295;-83
2021/11/25 00:15:13;;;;;;;;;0.25;0.25;;;;;6.31;62.84;100967.66;5085056;28;45362;-83
2021/11/25 00:17:39;;;;;;;;;0.00;0.00;;;;;6.15;62.76;100944.75;5085280;28;45263;-85
2021/11/25 00:20:07;;;;;;;;;1.00;0.25;;;;;6.32;62.90;100972.03;5066689;28;45287;-84
2021/11/25 00:22:33;;;;;;;;;1.00;1.00;;;;;6.33;62.68;100972.88;5100117;27;47055;-84
2021/11/25 00:24:59;;;;;;;;;2.00;1.00;;;;;6.25;63.09;100957.13;5085086;28;45287;-84
2021/11/25 00:27:24;;;;;;;;;0.50;0.50;;;;;6.17;62.99;100948.28;5100555;27;45453;-84
2021/11/25 00:29:50;;;;;;;;;1.50;1.00;;;;;6.17;62.75;100961.22;5084848;28;45220;-84
2021/11/25 00:32:15;;;;;;;;;2.25;1.00;;;;;5.96;62.95;100918.34;5075574;28;46005;-84
2021/11/25 00:34:40;;;;;;;;;1.50;0.25;;;;;5.99;63.16;100914.97;5064283;28;45559;-84
2021/11/25 00:37:06;;;;;;;;;0.00;0.00;;;;;6.23;63.06;100953.66;5065719;28;45839;-84
2021/11/25 00:39:33;;;;;;;;;0.00;0.00;;;;;6.10;63.10;100923.97;5063578;28;45326;-84
2021/11/25 00:41:59;;;;;;;;;0.00;0.00;;;;;6.10;62.91;100933.41;5063019;28;45473;-84
2021/11/25 00:44:24;;;;;;;;;0.50;0.50;;;;;6.21;62.59;100944.94;5064619;28;45342;-85
2021/11/25 00:46:52;;;;;;;;;0.00;0.00;;;;;6.17;63.14;100941.41;5063045;28;45255;-84
2021/11/25 00:49:17;;;;;;;;;0.00;0.00;;;;;6.17;63.04;100937.94;5065792;28;45544;-84
2021/11/25 00:51:43;;;;;;;;;0.75;0.00;;;;;6.19;63.05;100931.97;5062514;28;45372;-84
2021/11/25 00:54:08;;;;;;;;;1.00;1.00;;;;;6.08;63.29;100912.69;5065461;28;45263;-84
2021/11/25 00:56:34;;;;;;;;;2.25;2.25;;;;;6.15;62.86;100944.75;5095402;27;45301;-84
2021/11/25 00:58:59;;;;;;;;;3.00;1.75;;;;;5.68;62.79;100858.97;5081238;28;45467;-84
2021/11/25 01:01:25;;;;;;;;;0.50;0.50;;;;;6.03;63.07;100920.28;5062484;28;46339;-84
2021/11/25 01:03:50;;;;;;;;;1.00;1.00;;;;;6.17;63.05;100928.50;5080578;27;45688;-84
2021/11/25 01:06:16;;;;;;;;;3.00;1.00;;;;;6.19;62.50;100938.88;5062423;28;46015;-84
2021/11/25 01:08:42;;;;;;;;;1.00;1.00;;;;;6.11;62.56;100922.25;5065363;28;45486;-84
2021/11/25 01:11:07;;;;;;;;;0.25;0.25;;;;;6.08;62.39;100930.78;5062321;28;45426;-85
2021/11/25 01:13:33;;;;;;;;;1.25;1.25;;;;;6.03;62.47;100924.59;5063410;28;45392;-84
2021/11/25 01:15:59;;;;;;;;;0.50;0.50;;;;;6.14;62.53;100950.78;5062327;28;45314;-84
2021/11/25 01:18:24;;;;;;;;;1.50;1.50;;;;;6.02;62.13;100933.16;5067822;28;45418;-84
2021/11/25 01:20:51;;;;;;;;;0.00;0.00;;;;;5.93;62.52;100918.25;5065853;28;46342;-84
2021/11/25 01:23:23;;;;;;;;;1.00;1.00;;;;;5.38;62.73;100841.66;5068607;28;45227;-84
2021/11/25 01:25:52;;;;;;;;;0.00;0.00;;;;;6.06;62.36;100941.06;5102247;27;45299;-84
2021/11/25 01:28:19;;;;;;;;;0.00;0.00;;;;;5.96;62.20;100928.66;5053047;28;45490;-84
2021/11/25 01:30:47;;;;;;;;;1.00;1.00;;;;;6.08;61.96;100946.28;5032019;28;47078;-84
2021/11/25 01:33:14;;;;;;;;;0.00;0.00;;;;;5.89;62.04;100911.22;5078660;28;45446;-84
2021/11/25 01:35:40;;;;;;;;;0.00;0.00;;;;;6.06;62.24;100946.25;5086441;28;45343;-84
2021/11/25 01:38:07;;;;;;;;;1.00;1.00;;;;;5.80;61.94;100893.72;5087462;28;45627;-84
2021/11/25 01:40:33;;;;;;;;;0.00;0.00;;;;;6.05;61.47;100944.50;5085698;28;45966;-84
2021/11/25 01:42:59;;;;;;;;;1.00;0.25;;;;;5.82;62.02;100908.44;5088057;28;45173;-83
2021/11/25 01:45:26;;;;;;;;;0.00;0.00;;;;;6.06;61.30;100941.06;5085945;28;45221;-84
2021/11/25 01:47:53;;;;;;;;;1.00;0.00;;;;;6.07;61.60;100935.06;5088667;28;44808;-84
2021/11/25 01:50:20;;;;;;;;;1.50;1.00;;;;;6.04;61.43;100927.22;5085682;28;46475;-83
2021/11/25 01:52:46;;;;;;;;;0.00;0.00;;;;;6.16;61.26;100941.38;5088202;28;45413;-83
2021/11/25 01:55:13;;;;;;;;;1.00;0.00;;;;;6.01;61.29;100911.63;5085806;28;45218;-83
2021/11/25 01:57:39;;;;;;;;;0.00;0.00;;;;;6.14;61.09;100923.22;5087413;28;45635;-81
2021/11/25 02:00:15;;;;;;;;;0.00;0.00;;;;;6.13;60.95;100910.25;5087649;28;46049;-83
2021/11/25 02:02:41;;;;;;;;;1.00;0.25;;;;;6.23;61.29;100924.31;5103355;27;45597;-83
2021/11/25 02:05:07;;;;;;;;;0.00;0.00;;;;;6.38;60.63;100953.22;5086116;28;45569;-83
2021/11/25 02:07:32;;;;;;;;;1.00;1.00;;;;;6.28;60.67;100925.34;5083417;28;45493;-84
2021/11/25 02:09:58;;;;;;;;;2.50;1.00;;;;;6.40;61.04;100941.19;5064743;28;45438;-83
2021/11/25 02:12:24;;;;;;;;;0.00;0.00;;;;;6.45;59.82;100939.63;5067878;28;45342;-84
2021/11/25 02:14:50;;;;;;;;;1.50;0.00;;;;;6.19;60.12;100902.69;5051810;28;45254;-84
2021/11/25 02:17:16;;;;;;;;;0.00;0.00;;;;;6.32;60.25;100916.84;5047868;28;45403;-84
2021/11/25 02:19:42;;;;;;;;;0.00;0.00;;;;;6.40;60.63;100924.81;5050792;28;47475;-83
2021/11/25 02:22:08;;;;;;;;;1.00;1.00;;;;;6.39;60.48;100931.69;5067531;28;45303;-84
2021/11/25 02:24:35;;;;;;;;;1.00;0.25;;;;;6.12;59.96;100878.34;5064867;28;45483;-83
2021/11/25 02:27:00;;;;;;;;;0.50;0.00;;;;;6.27;60.13;100914.13;5067806;28;45201;-84
2021/11/25 02:29:26;;;;;;;;;0.50;0.50;;;;;6.37;60.19;100910.06;5065191;28;45243;-84
2021/11/25 02:31:52;;;;;;;;;0.25;0.25;;;;;6.44;60.38;100930.09;5069832;28;45444;-84
2021/11/25 02:34:17;;;;;;;;;1.00;1.00;;;;;6.24;60.14;100887.28;5085596;28;45346;-83
2021/11/25 02:36:43;;;;;;;;;2.00;0.00;;;;;6.25;59.94;100895.09;5086259;28;45622;-84
2021/11/25 02:39:11;;;;;;;;;0.75;0.00;;;;;6.38;60.28;100903.22;5085590;28;45282;-83
2021/11/25 02:41:37;;;;;;;;;0.00;0.00;;;;;6.37;60.07;100916.97;5087409;28;45252;-84
2021/11/25 02:44:02;;;;;;;;;1.00;0.50;;;;;6.27;60.43;100914.13;5083546;28;45236;-84
2021/11/25 02:46:27;;;;;;;;;0.00;0.00;;;;;6.21;60.62;100906.16;5087523;28;45560;-84
2021/11/25 02:48:59;;;;;;;;;1.00;1.00;;;;;6.14;60.78;100894.78;5085375;28;45231;-83
2021/11/25 02:51:31;;;;;;;;;0.50;0.50;;;;;6.29;61.24;100912.47;5087015;28;45326;-84
2021/11/25 02:53:58;;;;;;;;;0.00;0.00;;;;;6.18;61.07;100898.31;5085299;28;45601;-84
2021/11/25 02:56:27;;;;;;;;;1.00;0.00;;;;;6.19;61.20;100902.69;5102410;27;45591;-83
2021/11/25 02:58:55;;;;;;;;;0.25;0.00;;;;;6.18;61.34;100908.66;5085602;28;46210;-83
2021/11/25 03:01:31;;;;;;;;;0.00;0.00;;;;;6.13;61.65;100905.09;5085706;28;45374;-84
2021/11/25 03:04:00;;;;;;;;;0.00;0.00;;;;;6.20;61.70;100920.81;5100804;27;45426;-83
2021/11/25 03:06:29;;;;;;;;;0.25;0.00;;;;;6.16;61.85;100912.94;5083686;28;45481;-84
2021/11/25 03:08:56;;;;;;;;;2.75;1.75;;;;;6.11;61.91;100889.53;5086190;28;45547;-83
2021/11/25 03:11:26;;;;;;;;;0.50;0.50;;;;;6.21;61.97;100901.00;5085342;28;45326;-84
2021/11/25 03:13:55;;;;;;;;;2.50;0.00;;;;;6.22;61.68;100910.53;5086338;28;45315;-83
2021/11/25 03:16:21;;;;;;;;;0.75;0.75;;;;;6.05;62.06;100890.22;5066730;28;45268;-83
2021/11/25 03:18:48;;;;;;;;;3.00;1.50;;;;;6.13;61.93;100894.75;5086471;28;46061;-83
2021/11/25 03:21:15;;;;;;;;;0.00;0.00;;;;;6.19;61.68;100897.50;5100689;27;45341;-84
2021/11/25 03:23:41;;;;;;;;;0.00;0.00;;;;;6.13;61.81;100876.66;5085923;28;45369;-83
2021/11/25 03:26:09;;;;;;;;;1.50;1.00;;;;;6.12;61.94;100883.50;5085481;28;45605;-83
2021/11/25 03:28:45;;;;;;;;;2.00;0.00;;;;;5.97;62.08;100855.47;5065893;28;45331;-84
2021/11/25 03:31:24;;;;;;;;;0.00;0.00;;;;;6.22;62.20;100895.03;5063056;28;45268;-84
2021/11/25 03:33:52;;;;;;;;;1.25;1.25;;;;;6.20;62.11;100894.97;5048368;28;45386;-83
2021/11/25 03:36:19;;;;;;;;;0.25;0.25;;;;;6.12;62.04;100878.34;5064166;28;45545;-83
2021/11/25 03:38:45;;;;;;;;;1.00;1.00;;;;;6.18;62.51;100887.97;5066725;28;46304;-83
2021/11/25 03:41:13;;;;;;;;;1.00;1.00;;;;;6.06;62.67;100876.47;5062377;28;45315;-84
2021/11/25 03:43:39;;;;;;;;;0.00;0.00;;;;;6.10;63.18;100899.81;5066358;28;45295;-83
2021/11/25 03:46:05;;;;;;;;;2.75;1.00;;;;;5.81;63.10;100846.41;5064441;28;45296;-84
2021/11/25 03:48:31;;;;;;;;;0.25;0.25;;;;;6.08;63.73;100887.72;5065026;28;47437;-83
2021/11/25 03:51:02;;;;;;;;;0.75;0.75;;;;;5.98;63.52;100883.09;5062331;28;45337;-83
2021/11/25 03:53:29;;;;;;;;;2.00;0.75;;;;;6.07;63.54;100882.53;5066094;28;45413;-84
2021/11/25 03:55:54;;;;;;;;;2.00;2.00;;;;;5.95;64.27;100870.06;5079319;28;45580;-83
2021/11/25 03:58:20;;;;;;;;;4.75;1.00;;;;;5.85;64.27;100857.72;5064897;28;45505;-84
2021/11/25 04:00:46;;;;;;;;;2.75;1.00;;;;;5.93;64.35;100875.19;5063329;28;45301;-84
2021/11/25 04:03:11;;;;;;;;;4.25;2.00;;;;;5.96;64.34;100887.31;5067435;28;45284;-83
2021/11/25 04:05:37;;;;;;;;;2.50;2.00;;;;;5.95;64.48;100894.19;5061916;28;45253;-83
2021/11/25 04:08:03;;;;;;;;;3.25;1.00;;;;;5.84;64.91;100893.00;5066116;28;46685;-83
2021/11/25 04:10:28;;;;;;;;;2.25;1.00;;;;;5.59;64.83;100858.66;5064158;28;45228;-84
2021/11/25 04:12:54;;;;;;;;;1.00;1.00;;;;;5.73;65.22;100894.38;5080858;28;45294;-84
2021/11/25 04:15:20;;;;;;;;;1.25;1.25;;;;;5.52;65.91;100874.78;5064178;28;45182;-83
2021/11/25 04:17:45;;;;;;;;;1.50;1.00;;;;;5.45;65.80;100863.38;5064192;28;46604;-84
2021/11/25 04:20:13;;;;;;;;;1.00;1.00;;;;;5.50;65.83;100871.28;5063109;28;45423;-84
2021/11/25 04:22:39;;;;;;;;;0.00;0.00;;;;;5.30;65.98;100837.97;5080475;28;45363;-83
2021/11/25 04:25:06;;;;;;;;;3.75;2.50;;;;;5.35;66.79;100859.63;5063580;28;45347;-84
2021/11/25 04:27:31;;;;;;;;;2.75;1.50;;;;;5.48;67.04;100888.44;5065218;28;46213;-83
2021/11/25 04:30:07;;;;;;;;;3.50;1.00;;;;;5.41;67.17;100872.75;5045058;28;45337;-84
2021/11/25 04:35:36;;;;;;;;;1.25;1.00;;;;;5.47;66.97;100886.66;5082936;28;45196;-83
2021/11/25 04:38:06;;;;;;;;;0.25;0.25;;;;;5.39;67.02;100882.13;5101202;27;47174;-83
2021/11/25 04:40:42;;;;;;;;;1.00;1.00;;;;;5.23;67.17;100862.69;5082897;28;45310;-83
2021/11/25 04:43:08;;;;;;;;;7.00;3.00;;;;;5.42;67.12;100891.72;5085075;28;45369;-83
2021/11/25 04:45:37;;;;;;;;;3.00;3.00;;;;;5.14;66.94;100855.53;5081929;28;45461;-84
2021/11/25 04:48:03;;;;;;;;;3.25;2.00;;;;;5.27;67.68;100890.34;5085390;28;45990;-84
2021/11/25 04:50:29;;;;;;;;;1.00;1.00;;;;;5.19;67.98;100884.97;5082749;28;45494;-83
2021/11/25 04:52:54;;;;;;;;;2.75;2.75;;;;;5.12;68.13;100882.13;5084959;28;45200;-84
2021/11/25 04:55:20;;;;;;;;;1.00;1.00;;;;;5.18;67.94;100901.25;5082594;28;45461;-84
2021/11/25 04:57:45;;;;;;;;;4.00;3.00;;;;;4.97;67.88;100872.16;5085362;28;45893;-83
2021/11/25 05:00:12;;;;;;;;;1.75;1.75;;;;;4.78;68.46;100851.75;5080436;28;45820;-84
2021/11/25 05:02:38;;;;;;;;;3.25;3.00;;;;;5.04;67.71;100892.19;5064401;28;45387;-84
2021/11/25 05:05:05;;;;;;;;;2.50;2.50;;;;;4.91;68.34;100884.03;5062234;28;45489;-83
2021/11/25 05:07:30;;;;;;;;;1.50;1.50;;;;;4.90;68.25;100894.31;5064605;28;46615;-83
2021/11/25 05:09:56;;;;;;;;;9.00;4.25;;;;;4.85;68.90;100883.81;5061923;28;45243;-84
2021/11/25 05:12:21;;;;;;;;;5.25;4.50;;;;;4.66;67.88;100851.34;5064023;28;45476;-83
2021/11/25 05:14:47;;;;;;;;;2.00;1.00;;;;;4.29;68.30;100789.06;5062321;28;45205;-84
2021/11/25 05:17:12;;;;;;;;;2.00;2.00;;;;;4.88;68.51;100885.63;5063633;28;46282;-84
2021/11/25 05:19:38;;;;;;;;;2.50;2.00;;;;;4.85;67.99;100886.41;5060152;28;45216;-84
2021/11/25 05:22:03;;;;;;;;;4.00;4.00;;;;;4.70;68.76;100876.41;5062732;28;45204;-84
2021/11/25 05:24:29;;;;;;;;;3.75;2.00;;;;;4.67;67.75;100872.03;5061985;28;45311;-84
2021/11/25 05:26:54;;;;;;;;;5.75;3.50;;;;;4.61;68.03;100860.63;5062277;28;48106;-84
2021/11/25 05:29:23;;;;;;;;;2.50;2.00;;;;;4.55;69.08;100858.69;5061361;28;45248;-83
2021/11/25 05:31:49;;;;;;;;;2.00;1.00;;;;;4.68;68.90;100873.78;5050233;28;45632;-84
2021/11/25 05:34:17;;;;;;;;;3.00;3.00;;;;;4.53;68.84;100850.03;5097685;27;45580;-83
2021/11/25 05:36:44;;;;;;;;;1.25;1.25;;;;;4.78;68.65;100895.59;5063554;28;46083;-84
2021/11/25 05:39:11;;;;;;;;;4.00;1.50;;;;;4.68;67.90;100884.09;5060598;28;45339;-83
2021/11/25 05:41:37;;;;;;;;;1.75;1.50;;;;;4.55;68.68;100881.91;5078707;28;45361;-82
2021/11/25 05:44:04;;;;;;;;;1.25;1.25;;;;;4.54;68.88;100878.44;5058755;28;45514;-83
2021/11/25 05:46:29;;;;;;;;;1.00;1.00;;;;;4.60;68.94;100897.56;5067594;28;45369;-83
2021/11/25 05:48:54;;;;;;;;;3.25;3.25;;;;;4.39;68.48;100865.91;5062776;28;45296;-82
2021/11/25 05:51:20;;;;;;;;;1.00;1.00;;;;;4.32;69.00;100879.41;5077933;28;45369;-81
2021/11/25 05:53:45;;;;;;;;;3.25;3.25;;;;;4.32;68.44;100894.84;5061699;28;45450;-81
2021/11/25 05:56:11;;;;;;;;;3.00;3.00;;;;;4.38;68.72;100920.84;5062912;28;45418;-83
2021/11/25 05:58:36;;;;;;;;;9.50;3.25;;;;;4.06;68.76;100866.41;5060300;28;45285;-83
2021/11/25 06:01:02;;;;;;;;;4.50;3.00;;;;;4.18;68.50;100891.75;5058305;28;45564;-79
2021/11/25 06:03:28;;;;;;;;;0.75;0.75;;;;;4.30;69.23;100914.53;5060476;28;45422;-79
2021/11/25 06:05:53;;;;;;;;;10.00;3.50;;;;;4.11;69.19;100897.50;5063194;28;46339;-79
2021/11/25 06:08:18;;;;;;;;;3.00;3.00;;;;;4.05;68.63;100886.13;5063682;28;45221;-79
2021/11/25 06:10:44;;;;;;;;;4.00;2.50;;;;;4.25;68.28;100913.47;5065049;28;45270;-79
2021/11/25 06:13:09;;;;;;;;;1.75;1.25;;;;;4.08;69.12;100903.44;5062948;28;45422;-79
2021/11/25 06:15:34;;;;;;;;;3.25;1.00;;;;;4.21;69.12;100927.94;5079659;28;46987;-79
2021/11/25 06:18:00;;;;;;;;;2.75;2.25;;;;;4.16;69.26;100911.41;5064411;28;45443;-79
2021/11/25 06:20:25;;;;;;;;;1.00;1.00;;;;;4.12;69.48;100894.09;5061558;28;45399;-79
2021/11/25 06:22:53;;;;;;;;;4.50;4.50;;;;;4.30;68.47;100930.00;5063663;28;45456;-79
2021/11/25 06:25:20;;;;;;;;;3.00;2.25;;;;;4.26;68.66;100930.72;5055405;28;45563;-78
2021/11/25 06:27:46;;;;;;;;;3.50;2.75;;;;;4.22;68.86;100921.09;5062680;28;45433;-79
2021/11/25 06:30:13;;;;;;;;;2.25;2.00;;;;;4.33;68.48;100934.38;5061892;28;45431;-78
2021/11/25 06:32:41;;;;;;;;;2.75;2.25;;;;;4.26;68.77;100915.25;5064000;28;45543;-79
2021/11/25 06:35:12;;;;;;;;;2.50;2.25;;;;;4.28;68.80;100931.63;5062130;28;47220;-81
2021/11/25 06:37:39;;;;;;;;;3.50;3.25;;;;;4.17;69.02;100915.78;5062415;28;45242;-80
2021/11/25 06:40:09;;;;;;;;;2.00;2.00;;;;;4.13;69.27;100904.47;5078574;28;45497;-78
2021/11/25 06:42:35;;;;;;;;;2.00;2.00;;;;;4.17;68.71;100918.34;5062688;28;45460;-79
2021/11/25 06:45:01;;;;;;;;;4.75;2.75;;;;;4.21;69.15;100922.78;5062366;28;46504;-79
2021/11/25 06:47:28;;;;;;;;;4.00;2.75;;;;;4.26;68.85;100917.81;5063809;28;45189;-81
2021/11/25 06:49:54;;;;;;;;;5.50;3.75;;;;;4.05;68.35;100888.69;5040325;28;45339;-80
2021/11/25 06:52:19;;;;;;;;;4.75;2.25;;;;;4.05;68.46;100888.69;5045145;28;45247;-80
2021/11/25 06:54:47;;;;;;;;;6.75;3.25;;;;;4.15;68.97;100901.94;5059465;28;45860;-77
2021/11/25 06:57:13;;;;;;;;;1.25;1.25;;;;;4.05;68.13;100883.56;5043927;28;45614;-80
2021/11/25 06:59:39;;;;;;;;;4.75;3.00;;;;;4.23;67.99;100903.09;5060666;28;45451;-79
2021/11/25 07:02:07;;;;;;;;;2.25;1.75;;;;;4.01;68.27;100881.69;5044465;28;46418;-78
2021/11/25 07:04:33;;;;;;;;;1.00;1.00;;;;;4.31;68.61;100942.06;5059144;28;45526;-78
2021/11/25 07:06:59;;;;;;;;;0.50;0.50;;;;;4.11;68.11;100918.13;5061750;28;45752;-78
2021/11/25 07:09:24;;;;;;;;;2.25;1.75;;;;;4.41;68.61;100961.34;5061592;28;45306;-81
2021/11/25 07:11:50;;;;;;;;;1.75;1.75;;;;;4.34;68.05;100951.59;5064834;28;45511;-82
2021/11/25 07:14:15;;;;;;;;;1.50;1.00;;;;;4.42;68.83;100971.72;5063859;28;46153;-81
2021/11/25 07:16:41;;;;;;;;;1.50;1.50;;;;;4.42;67.94;100978.56;5062601;28;45353;-79
2021/11/25 07:19:06;;;;;;;;;2.00;0.50;;;;;4.36;68.03;100971.47;5046780;28;45489;-80
2021/11/25 07:21:34;;;;;;;;;2.50;1.00;;;;;4.21;68.06;100957.97;5085189;27;45444;-79
2021/11/25 07:23:59;;;;;;;;;0.75;0.50;;;;;4.17;68.44;100941.53;5082017;27;47162;-79
2021/11/25 07:26:25;;;;;;;;;5.25;2.25;;;;;4.14;68.18;100939.72;5078019;28;45404;-79
2021/11/25 07:28:50;;;;;;;;;7.25;4.50;;;;;3.96;68.33;100906.41;5060680;28;45345;-78
2021/11/25 07:31:16;;;;;;;;;1.00;1.00;;;;;4.08;67.51;100921.47;5077492;28;45576;-78
2021/11/25 07:33:41;;;;;;;;;4.00;2.00;;;;;4.47;67.93;100987.31;5060453;28;45535;-78
2021/11/25 07:36:06;;;;;;;;;5.25;3.75;;;;;4.25;68.59;100952.13;5043905;28;45576;-78
2021/11/25 07:38:32;;;;;;;;;5.50;3.00;;;;;4.20;67.87;100943.34;5041587;28;45573;-78
2021/11/25 07:40:59;;;;;;;;;3.00;3.00;;;;;4.47;68.48;100996.78;5059266;28;45707;-78
2021/11/25 07:43:25;;;;;;;;;2.75;2.75;;;;;4.39;68.10;100986.19;5061321;28;47144;-78
2021/11/25 07:45:53;;;;;;;;;7.75;5.00;;;;;4.40;68.03;101008.53;5076526;28;45488;-78
2021/11/25 07:48:27;;;;;;;;;3.25;2.25;;;;;4.41;68.46;101007.75;5081129;27;45315;-78
2021/11/25 07:50:52;;;;;;;;;2.25;2.25;;;;;4.16;67.97;100969.00;5060079;28;45421;-79
2021/11/25 07:53:18;;;;;;;;;3.00;2.75;;;;;4.39;68.22;101001.63;5059174;28;48197;-78
2021/11/25 07:55:43;;;;;;;;;4.00;3.00;;;;;4.28;68.48;100993.47;5059852;28;45357;-78
2021/11/25 07:58:08;;;;;;;;;4.25;4.25;;;;;4.31;68.45;100985.88;5065091;28;45464;-79
2021/11/25 08:00:34;;;;;;;;;1.75;1.75;;;;;4.56;68.34;101013.47;5059492;28;45558;-79
2021/11/25 08:02:59;;;;;;;;;1.00;1.00;;;;;4.46;68.16;100983.00;5075498;28;48082;-79
2021/11/25 08:05:26;;;;;;;;;7.25;2.75;;;;;4.72;67.85;101014.06;5042747;28;45319;-79
2021/11/25 08:07:54;;;;;;;;;2.50;2.50;;;;;4.88;67.65;101027.50;5062939;28;45296;-79
2021/11/25 08:10:21;;;;;;;;;7.00;4.00;;;;;4.81;67.27;101013.53;5068078;28;45375;-77
2021/11/25 08:12:46;;;;;;;;;3.00;2.00;;;;;4.80;67.59;101015.22;5060110;28;45646;-78
2021/11/25 08:15:12;;;;;;;;;1.50;1.50;;;;;4.91;67.02;101044.00;5060441;28;45496;-78
2021/11/25 08:17:38;;;;;;;;;5.75;3.00;;;;;4.91;67.03;101041.41;5079037;28;45423;-78
2021/11/25 08:20:03;;;;;;;;;3.25;2.00;;;;;4.73;67.78;101005.50;5042957;28;45504;-76
2021/11/25 08:22:29;;;;;;;;;4.25;4.25;;;;;4.97;67.06;101034.72;5075838;28;47796;-79
2021/11/25 08:24:55;;;;;;;;;2.00;2.00;;;;;4.92;67.49;101019.06;5062805;28;45474;-78
2021/11/25 08:27:20;;;;;;;;;2.50;2.50;;;;;5.05;67.02;101023.84;5060248;28;45343;-78
2021/11/25 08:29:46;;;;;;;;;4.75;4.50;;;;;5.24;66.65;101050.28;5042341;28;45418;-78
2021/11/25 08:32:12;;;;;;;;;3.00;2.50;;;;;5.27;66.86;101047.81;5064851;28;45439;-78
2021/11/25 08:34:37;;;;;;;;;2.75;2.25;;;;;5.31;66.68;101038.50;5060997;28;45298;-79
2021/11/25 08:37:03;;;;;;;;;5.75;2.50;;;;;5.33;66.69;101066.13;5060728;28;45278;-78
2021/11/25 08:39:28;;;;;;;;;7.00;6.25;;;;;5.13;66.58;101039.59;5060873;28;45289;-81
2021/11/25 08:41:53;;;;;;;;;5.75;3.00;;;;;5.18;66.78;101050.09;5061179;28;46031;-79
2021/11/25 08:44:19;;;;;;;;;1.50;1.25;;;;;5.22;66.45;101039.06;5059313;28;45220;-78
2021/11/25 08:46:44;;;;;;;;;4.75;2.25;;;;;5.46;66.55;101056.25;5060066;28;45242;-78
2021/11/25 08:49:10;;;;;;;;;5.00;5.00;;;;;5.47;66.15;101057.09;5060079;28;45497;-79
2021/11/25 08:51:36;;;;;;;;;2.50;2.00;;;;;5.46;65.69;101043.31;5060485;28;46133;-78
2021/11/25 08:54:02;;;;;;;;;10.50;4.75;;;;;5.49;66.10;101047.72;5059757;28;45387;-78
2021/11/25 08:56:29;;;;;;;;;4.25;4.25;;;;;5.61;66.14;101057.59;5060485;28;45349;-78
2021/11/25 08:58:54;;;;;;;;;6.00;4.00;;;;;5.61;65.61;101050.72;5060754;28;45412;-78
2021/11/25 09:01:20;;;;;;;;;8.25;5.00;;;;;5.78;65.53;101064.19;5059319;28;46205;-78
2021/11/25 09:03:45;;;;;;;;;4.75;3.75;;;;;5.58;65.62;101038.56;5061212;28;45336;-79
2021/11/25 09:06:11;;;;;;;;;3.50;3.25;;;;;5.62;65.24;101021.47;5060185;28;45533;-79
2021/11/25 09:08:36;;;;;;;;;1.75;1.00;;;;;5.69;65.29;101033.78;5060354;28;45230;-78
2021/11/25 09:11:02;;;;;;;;;7.75;4.75;;;;;5.58;65.32;101023.06;5075617;28;45632;-79
2021/11/25 09:13:27;;;;;;;;;3.75;3.75;;;;;5.69;64.84;101040.63;5060467;28;45867;-78
2021/11/25 09:15:53;;;;;;;;;1.00;1.00;;;;;5.47;65.40;101013.19;5058746;28;45516;-78
2021/11/25 09:18:19;;;;;;;;;2.50;2.00;;;;;5.50;65.72;101021.06;5059981;28;45679;-78
2021/11/25 09:20:45;;;;;;;;;2.00;2.00;;;;;5.49;65.31;101008.97;5061423;28;46165;-78
2021/11/25 09:23:15;;;;;;;;;1.50;1.50;;;;;5.65;65.38;101036.19;5061505;28;46271;-80
2021/11/25 09:25:42;;;;;;;;;3.25;2.25;;;;;5.64;65.36;101013.78;5078944;27;45513;-79
2021/11/25 09:28:09;;;;;;;;;4.00;3.75;;;;;5.63;65.52;101006.88;5075610;28;45518;-79
2021/11/25 09:30:35;;;;;;;;;3.50;3.50;;;;;5.86;65.58;101041.22;5061799;28;45529;-79
2021/11/25 09:33:01;;;;;;;;;4.50;4.50;;;;;5.84;65.35;101024.78;5059552;28;45236;-79
2021/11/25 09:35:26;;;;;;;;;5.50;4.25;;;;;5.99;65.40;101037.31;5064079;28;45311;-79
2021/11/25 09:37:52;;;;;;;;;6.50;4.25;;;;;6.07;65.12;101035.88;5075481;28;45518;-79
2021/11/25 09:40:23;;;;;;;;;6.25;4.25;;;;;5.92;65.34;101025.91;5060567;28;46180;-79
2021/11/25 09:42:51;;;;;;;;;3.50;1.75;;;;;5.92;65.03;101030.19;5065555;28;45292;-80
2021/11/25 09:45:21;;;;;;;;;3.75;3.00;;;;;5.76;65.12;100996.09;5064218;28;45545;-80
2021/11/25 09:47:48;;;;;;;;;5.50;3.75;;;;;5.95;65.18;101036.31;5064853;28;45282;-80
2021/11/25 09:50:13;;;;;;;;;8.00;3.75;;;;;5.76;64.99;101016.75;5062388;28;45303;-79
2021/11/25 09:52:39;;;;;;;;;4.00;4.00;;;;;5.91;65.12;101025.88;5065148;28;45391;-80
2021/11/25 09:55:04;;;;;;;;;4.25;4.00;;;;;5.84;64.98;101017.00;5052637;28;45528;-80
2021/11/25 09:57:29;;;;;;;;;4.75;1.25;;;;;5.98;65.32;101038.16;5053707;28;45808;-79
2021/11/25 09:59:55;;;;;;;;;5.00;5.00;;;;;5.85;65.28;101015.31;5091000;27;46921;-78
2021/11/25 10:02:20;;;;;;;;;9.75;4.75;;;;;5.98;65.39;101027.81;5067377;28;45125;-79
2021/11/25 10:04:45;;;;;;;;;2.00;1.25;;;;;6.10;64.81;101026.47;5064642;28;45453;-78
2021/11/25 10:07:11;;;;;;;;;3.50;3.25;;;;;6.31;64.92;101047.81;5067273;28;45372;-80
2021/11/25 10:09:40;;;;;;;;;8.25;5.25;;;;;6.40;64.56;101034.31;5063939;28;45319;-77
2021/11/25 10:12:36;;;;;;;;;7.25;4.50;;;;;6.61;64.95;101043.53;5069175;28;46575;-78
2021/11/25 10:15:26;;;;;;;;;5.25;4.00;;;;;6.78;64.13;101050.94;5062592;28;45307;-80
2021/11/25 10:17:53;;;;;;;;;5.00;5.00;;;;;6.64;64.10;101029.84;5078857;28;45439;-77
2021/11/25 10:20:19;;;;;;;;;4.00;1.00;;;;;6.64;63.75;101043.63;5080049;28;46465;-77
2021/11/25 10:23:03;;;;;;;;;6.50;4.75;;;;;6.57;64.34;101044.28;5066504;28;45380;-77
2021/11/25 10:25:57;;;;;;;;;4.75;4.50;;;;;6.35;64.18;101030.72;5064129;28;45323;-77
2021/11/25 10:28:38;;;;;;;;;3.75;3.25;;;;;6.08;64.49;100996.28;5063828;28;45452;-78
2021/11/25 10:31:13;;;;;;;;;5.25;3.00;;;;;6.24;64.58;101040.72;5079188;28;46035;-79
2021/11/25 10:33:47;;;;;;;;;2.75;2.75;;;;;6.15;65.34;101043.00;5082559;28;45228;-78
2021/11/25 10:41:32;;;;;;;;;4.50;4.50;;;;;5.85;65.82;101015.31;5087202;28;45410;-80
2021/11/25 10:44:10;;;;;;;;;3.00;2.75;;;;;5.96;65.81;101035.53;5065876;28;44905;-79
2021/11/25 10:46:48;;;;;;;;;4.25;3.50;;;;;5.89;65.82;101012.88;5085285;28;45267;-82
2021/11/25 10:49:15;;;;;;;;;5.25;4.75;;;;;6.13;65.80;101036.91;5078292;28;45285;-82
2021/11/25 10:51:44;;;;;;;;;8.00;4.50;;;;;5.90;65.74;100985.31;5072996;28;48032;-79
2021/11/25 10:54:18;;;;;;;;;5.75;3.75;;;;;6.17;65.45;101021.56;5046244;28;45267;-78
2021/11/25 10:56:53;;;;;;;;;8.25;5.00;;;;;6.28;65.70;101021.88;5067380;28;45300;-79
2021/11/25 10:59:22;;;;;;;;;5.00;5.00;;;;;6.25;65.43;100995.06;5063281;28;45577;-78
2021/11/25 11:01:50;;;;;;;;;3.25;3.25;;;;;6.24;65.46;100986.41;5052664;28;47607;-78
2021/11/25 11:04:17;;;;;;;;;3.50;3.50;;;;;6.46;65.26;101008.63;5065601;28;45365;-80
2021/11/25 11:06:44;;;;;;;;;6.00;3.75;;;;;6.50;65.25;100996.69;5062609;28;45366;-79
2021/11/25 11:09:29;;;;;;;;;4.00;4.00;;;;;6.49;65.06;100986.28;5063109;28;45254;-80
2021/11/25 11:12:18;;;;;;;;;4.00;4.00;;;;;6.69;64.85;101007.56;5062843;28;45300;-81
2021/11/25 11:14:51;;;;;;;;;6.00;4.00;;;;;6.56;64.29;101004.59;5073074;28;45513;-81
2021/11/25 11:17:47;;;;;;;;;3.75;3.75;;;;;6.52;64.49;101018.28;5083508;28;45358;-80
2021/11/25 11:20:17;;;;;;;;;3.75;3.00;;;;;6.19;64.88;100996.59;5083321;28;45710;-81
2021/11/25 11:22:58;;;;;;;;;5.75;5.75;;;;;6.17;64.99;101016.38;5082567;28;45974;-80
2021/11/25 11:25:25;;;;;;;;;3.00;2.00;;;;;6.04;64.90;100984.09;5079077;28;45520;-80
2021/11/25 11:27:55;;;;;;;;;3.00;1.75;;;;;6.06;65.13;100978.97;5063035;28;45284;-81
2021/11/25 11:30:21;;;;;;;;;5.50;5.50;;;;;6.17;64.92;100984.47;5078395;28;45581;-80
2021/11/25 11:32:47;;;;;;;;;4.00;3.00;;;;;6.37;64.58;101008.34;5074151;28;46312;-81
2021/11/25 11:35:15;;;;;;;;;2.25;2.00;;;;;6.36;64.40;100985.91;5082325;28;45343;-80
2021/11/25 11:37:41;;;;;;;;;4.00;2.25;;;;;6.29;64.58;100977.09;5082135;28;45303;-81
2021/11/25 11:40:09;;;;;;;;;7.00;3.75;;;;;6.49;64.42;101009.56;5083436;28;45274;-80
2021/11/25 11:42:35;;;;;;;;;3.50;3.25;;;;;6.42;63.98;100992.97;5098519;27;47140;-80